Time;durP1;ratioP1;P1;durP2;ratioP2;P2;SDS_P1;SDS_P2;PMS_P1;PMS_P2;Temp;Humidity;BMP_temperature;BMP_pressure;BME280_temperature;BME280_humidity;BME280_pressure;Samples;Min_cycle;Max_cycle;Signal;HPM_P1;HPM_P2
2021/10/05 00:01:16;;;;;;;4.32;2.28;;;10.80;99.90;;;;;;4996388;28;20208;-90
2021/10/05 00:03:45;;;;;;;6.93;2.42;;;10.70;99.90;;;;;;4996308;28;20207;-90
2021/10/05 00:06:30;;;;;;;3.20;2.40;;;10.60;99.90;;;;;;4996221;28;20211;-91
2021/10/05 00:09:10;;;;;;;5.72;2.30;;;10.50;99.90;;;;;;4996287;28;20200;-90
2021/10/05 00:11:39;;;;;;;4.75;2.17;;;10.50;99.90;;;;;;4996403;28;20172;-91
2021/10/05 00:14:18;;;;;;;5.07;2.53;;;10.50;99.90;;;;;;4996192;28;20267;-89
2021/10/05 00:16:46;;;;;;;2.88;2.03;;;10.50;99.90;;;;;;4996299;28;20290;-91
2021/10/05 00:19:16;;;;;;;2.83;1.73;;;10.50;99.90;;;;;;4995202;28;20219;-92
2021/10/05 00:21:51;;;;;;;4.82;2.03;;;10.50;99.90;;;;;;4996485;28;20259;-92
2021/10/05 00:24:32;;;;;;;4.03;2.00;;;10.60;99.90;;;;;;4996283;28;20534;-90
2021/10/05 00:27:08;;;;;;;4.32;2.15;;;10.60;99.90;;;;;;4996419;28;20644;-91
2021/10/05 00:29:42;;;;;;;4.03;2.30;;;10.60;99.90;;;;;;4996084;28;20199;-91
2021/10/05 00:32:15;;;;;;;3.30;1.92;;;10.50;99.90;;;;;;4996161;28;20567;-91
2021/10/05 00:34:44;;;;;;;4.43;2.17;;;10.50;99.90;;;;;;4995945;28;20182;-91
2021/10/05 00:37:28;;;;;;;3.20;1.88;;;10.50;99.90;;;;;;4979379;28;20315;-91
2021/10/05 00:40:04;;;;;;;2.22;1.73;;;10.50;99.90;;;;;;4979413;28;20681;-91
2021/10/05 00:42:33;;;;;;;4.13;2.10;;;10.60;99.90;;;;;;4979683;28;20175;-90
2021/10/05 00:45:07;;;;;;;4.90;2.20;;;10.60;99.90;;;;;;4979448;28;20176;-91
2021/10/05 00:47:41;;;;;;;2.20;1.83;;;10.60;99.90;;;;;;4979330;28;20180;-93
2021/10/05 00:50:16;;;;;;;2.58;1.85;;;10.50;99.90;;;;;;4979411;28;20171;-91
2021/10/05 00:52:49;;;;;;;2.33;1.73;;;10.40;99.90;;;;;;4979422;28;20223;-90
2021/10/05 00:55:17;;;;;;;3.53;2.00;;;10.50;99.90;;;;;;4979091;28;20233;-91
2021/10/05 00:58:08;;;;;;;4.88;2.20;;;10.50;99.90;;;;;;4979082;28;20172;-91
2021/10/05 01:00:56;;;;;;;4.45;2.33;;;10.40;99.90;;;;;;4979245;28;20191;-91
2021/10/05 01:03:35;;;;;;;4.47;2.00;;;10.50;99.90;;;;;;4979223;28;20182;-90
2021/10/05 01:06:08;;;;;;;2.85;1.88;;;10.60;99.90;;;;;;4979061;28;20427;-91
2021/10/05 01:08:40;;;;;;;3.10;2.30;;;10.60;99.90;;;;;;4979080;28;20200;-90
2021/10/05 01:11:18;;;;;;;2.85;1.70;;;10.50;99.90;;;;;;4978815;28;20179;-91
2021/10/05 01:13:58;;;;;;;3.45;1.80;;;10.60;99.90;;;;;;4979113;28;20182;-90
2021/10/05 01:17:02;;;;;;;4.22;2.00;;;10.60;99.90;;;;;;4978839;28;20294;-91
2021/10/05 01:19:42;;;;;;;2.88;1.95;;;10.50;99.90;;;;;;4978753;28;20195;-90
2021/10/05 01:22:16;;;;;;;2.28;1.70;;;10.60;99.90;;;;;;4978861;28;20172;-91
2021/10/05 01:24:57;;;;;;;2.60;2.13;;;10.60;99.90;;;;;;4978921;28;20512;-90
2021/10/05 01:27:31;;;;;;;2.92;1.55;;;10.70;99.90;;;;;;4978682;28;20176;-91
2021/10/05 01:30:16;;;;;;;2.97;1.88;;;10.70;99.90;;;;;;4978782;28;20203;-91
2021/10/05 01:32:44;;;;;;;2.80;1.90;;;10.60;99.90;;;;;;4978556;28;20172;-90
2021/10/05 01:35:10;;;;;;;6.38;2.08;;;10.60;99.90;;;;;;4978137;28;20227;-90
2021/10/05 01:37:39;;;;;;;2.95;2.05;;;10.60;99.90;;;;;;4995005;28;20176;-91
2021/10/05 01:40:08;;;;;;;4.47;1.98;;;10.60;99.90;;;;;;4997544;28;20200;-90
2021/10/05 01:45:13;;;;;;;2.40;1.83;;;10.60;99.90;;;;;;5032411;28;20241;-91
2021/10/05 01:47:40;;;;;;;3.53;1.77;;;10.70;99.90;;;;;;5017221;28;20178;-90
2021/10/05 01:50:06;;;;;;;6.60;2.10;;;10.70;99.90;;;;;;5017250;28;20237;-90
2021/10/05 01:52:41;;;;;;;2.53;1.63;;;10.70;99.90;;;;;;5033595;28;20198;-92
2021/10/05 01:55:16;;;;;;;3.63;1.90;;;10.60;99.90;;;;;;5017011;28;20171;-92
2021/10/05 01:57:46;;;;;;;2.90;1.80;;;10.70;99.90;;;;;;5017277;28;20166;-90
2021/10/05 02:00:12;;;;;;;3.22;1.90;;;10.70;99.90;;;;;;5017096;28;20229;-91
2021/10/05 02:02:49;;;;;;;4.05;2.03;;;10.80;99.90;;;;;;5033574;28;20193;-89
2021/10/05 02:05:19;;;;;;;4.30;1.83;;;10.80;99.90;;;;;;5014732;28;20221;-92
2021/10/05 02:07:45;;;;;;;1.98;1.52;;;10.80;99.90;;;;;;5033727;28;20167;-90
2021/10/05 02:10:13;;;;;;;4.75;2.00;;;10.80;99.90;;;;;;5017271;28;20176;-89
2021/10/05 02:12:39;;;;;;;5.82;1.63;;;10.70;99.90;;;;;;5017092;28;20171;-92
2021/10/05 02:15:09;;;;;;;3.00;2.03;;;10.70;99.90;;;;;;5033392;28;20171;-91
2021/10/05 02:17:40;;;;;;;6.95;2.50;;;10.80;99.90;;;;;;5017224;28;20194;-93
2021/10/05 02:20:06;;;;;;;6.55;2.00;;;10.80;99.90;;;;;;5016808;28;20264;-92
2021/10/05 02:22:35;;;;;;;2.40;1.80;;;10.70;99.90;;;;;;5034042;28;20630;-92
2021/10/05 02:25:15;;;;;;;3.20;1.55;;;10.70;99.90;;;;;;5033945;28;20166;-90
2021/10/05 02:27:41;;;;;;;3.67;1.80;;;10.70;99.90;;;;;;5017019;28;20167;-92
2021/10/05 02:30:08;;;;;;;2.13;1.50;;;10.70;99.90;;;;;;5016757;28;20273;-91
2021/10/05 02:32:34;;;;;;;2.25;1.50;;;10.80;99.90;;;;;;5034460;28;20234;-91
2021/10/05 02:35:01;;;;;;;2.47;1.40;;;10.80;99.90;;;;;;5034650;28;20166;-91
2021/10/05 02:37:31;;;;;;;3.75;1.58;;;10.80;99.90;;;;;;5017111;28;20257;-91
2021/10/05 02:40:02;;;;;;;2.05;1.42;;;10.80;99.90;;;;;;5033069;28;20218;-93
2021/10/05 02:42:30;;;;;;;2.30;1.25;;;10.90;99.90;;;;;;5036558;28;20170;-91
2021/10/05 02:45:12;;;;;;;5.75;1.70;;;10.90;99.90;;;;;;5022767;28;20252;-92
2021/10/05 02:47:42;;;;;;;2.05;1.17;;;11.00;99.90;;;;;;5022839;28;20618;-91
2021/10/05 02:50:10;;;;;;;3.05;1.52;;;11.00;99.90;;;;;;5023225;28;20185;-90
2021/10/05 02:52:45;;;;;;;3.58;1.27;;;11.10;99.90;;;;;;5023182;28;20178;-92
2021/10/05 02:55:18;;;;;;;4.43;1.50;;;11.20;99.90;;;;;;5022977;28;20176;-92
2021/10/05 02:57:52;;;;;;;2.40;1.25;;;11.20;99.90;;;;;;5023271;28;20178;-92
2021/10/05 03:00:50;;;;;;;4.35;1.70;;;11.20;99.90;;;;;;5023080;28;20175;-91
2021/10/05 03:03:21;;;;;;;2.15;1.40;;;11.20;99.90;;;;;;5023158;28;20876;-92
2021/10/05 03:05:54;;;;;;;3.28;1.58;;;11.10;99.90;;;;;;5023027;28;20189;-91
2021/10/05 03:08:22;;;;;;;3.45;1.50;;;11.10;99.90;;;;;;5022903;28;20297;-91
2021/10/05 03:10:54;;;;;;;2.75;1.40;;;11.10;99.90;;;;;;5039421;28;20580;-90
2021/10/05 03:13:33;;;;;;;3.10;1.35;;;11.10;99.90;;;;;;5023004;28;20240;-91
2021/10/05 03:16:20;;;;;;;2.33;1.25;;;11.20;99.90;;;;;;5022902;28;20208;-92
2021/10/05 03:18:55;;;;;;;1.67;1.30;;;11.20;99.90;;;;;;5022775;28;20277;-89
2021/10/05 03:21:51;;;;;;;2.60;1.48;;;11.30;99.90;;;;;;5040476;28;20162;-92
2021/10/05 03:24:42;;;;;;;4.10;1.33;;;11.30;99.90;;;;;;5022960;28;20178;-92
2021/10/05 03:27:16;;;;;;;2.65;1.40;;;11.30;99.90;;;;;;5022692;28;20179;-92
2021/10/05 03:29:49;;;;;;;2.38;1.17;;;11.40;99.90;;;;;;5022742;28;20692;-91
2021/10/05 03:32:31;;;;;;;2.22;1.40;;;11.40;99.90;;;;;;5023227;28;20642;-90
2021/10/05 03:35:16;;;;;;;2.38;1.30;;;11.40;99.90;;;;;;5023246;28;20171;-92
2021/10/05 03:37:44;;;;;;;1.88;1.27;;;11.40;99.90;;;;;;5023250;28;20182;-93
2021/10/05 03:40:19;;;;;;;1.80;1.10;;;11.40;99.90;;;;;;5023664;28;20175;-91
2021/10/05 03:42:54;;;;;;;3.80;1.52;;;11.40;99.90;;;;;;5039747;28;20174;-91
2021/10/05 03:45:20;;;;;;;2.13;1.30;;;11.40;99.90;;;;;;5002520;28;20462;-91
2021/10/05 03:47:45;;;;;;;3.17;1.17;;;11.40;99.90;;;;;;5002717;28;20179;-92
2021/10/05 03:50:11;;;;;;;3.75;1.23;;;11.40;99.90;;;;;;5002961;28;20591;-89
2021/10/05 03:52:38;;;;;;;2.35;1.48;;;11.30;99.90;;;;;;5002507;28;20179;-92
2021/10/05 03:55:06;;;;;;;1.63;1.20;;;11.30;99.90;;;;;;4998838;28;20190;-93
2021/10/05 03:57:31;;;;;;;5.65;1.85;;;11.30;99.90;;;;;;4999862;28;20181;-93
2021/10/05 03:59:57;;;;;;;2.85;1.50;;;11.20;99.90;;;;;;4999021;28;20286;-91
2021/10/05 04:02:24;;;;;;;11.77;1.63;;;11.20;99.90;;;;;;4999553;28;20632;-90
2021/10/05 04:04:49;;;;;;;3.58;1.70;;;11.20;99.90;;;;;;4999425;28;20175;-91
2021/10/05 04:07:17;;;;;;;3.33;1.50;;;11.20;99.90;;;;;;4999800;28;20585;-92
2021/10/05 04:09:43;;;;;;;2.47;1.42;;;11.20;99.90;;;;;;4999443;28;20659;-90
2021/10/05 04:12:09;;;;;;;4.47;1.80;;;11.20;99.90;;;;;;4999444;28;20183;-93
2021/10/05 04:14:35;;;;;;;3.85;1.55;;;11.30;99.90;;;;;;4999690;28;20179;-92
2021/10/05 04:17:02;;;;;;;1.42;1.25;;;11.30;99.90;;;;;;4999187;28;20282;-92
2021/10/05 04:19:28;;;;;;;1.85;1.40;;;11.30;99.90;;;;;;4998977;28;20192;-89
2021/10/05 04:21:54;;;;;;;4.22;1.45;;;11.30;99.90;;;;;;4999201;28;20247;-93
2021/10/05 04:24:20;;;;;;;1.60;1.15;;;11.30;99.90;;;;;;4999033;28;20175;-92
2021/10/05 04:26:46;;;;;;;5.18;1.45;;;11.30;99.90;;;;;;5016474;28;20164;-93
2021/10/05 04:29:11;;;;;;;3.90;1.65;;;11.40;99.90;;;;;;4998958;28;20246;-93
2021/10/05 04:31:39;;;;;;;2.92;1.70;;;11.40;99.90;;;;;;4998951;28;20179;-92
2021/10/05 04:34:05;;;;;;;2.92;1.83;;;11.40;99.90;;;;;;4998898;28;20183;-94
2021/10/05 04:36:31;;;;;;;3.35;1.90;;;11.40;99.90;;;;;;4999080;28;20203;-90
2021/10/05 04:38:57;;;;;;;3.25;1.88;;;11.40;99.90;;;;;;4998480;28;20199;-93
2021/10/05 04:41:22;;;;;;;2.38;1.85;;;11.40;99.90;;;;;;4998832;28;20175;-91
2021/10/05 04:43:48;;;;;;;3.33;1.75;;;11.40;99.90;;;;;;5005831;28;20317;-93
2021/10/05 04:46:14;;;;;;;2.22;1.90;;;11.30;99.90;;;;;;5018479;28;20186;-93
2021/10/05 04:48:39;;;;;;;4.07;2.03;;;11.30;99.90;;;;;;5018191;28;20209;-91
2021/10/05 04:51:05;;;;;;;4.28;1.80;;;11.30;99.90;;;;;;5018371;28;20178;-92
2021/10/05 04:53:31;;;;;;;3.47;1.98;;;11.30;99.90;;;;;;5018708;28;20178;-91
2021/10/05 04:55:56;;;;;;;6.55;2.55;;;11.30;99.90;;;;;;5018987;28;20229;-91
2021/10/05 04:58:22;;;;;;;4.00;2.65;;;11.30;99.90;;;;;;5018425;28;20209;-92
2021/10/05 05:00:50;;;;;;;4.47;2.22;;;11.30;99.90;;;;;;5018883;28;20178;-91
2021/10/05 05:03:16;;;;;;;3.03;2.05;;;11.30;99.90;;;;;;5018611;28;20174;-93
2021/10/05 05:05:41;;;;;;;5.95;2.90;;;11.30;99.90;;;;;;5018291;28;20244;-92
2021/10/05 05:08:10;;;;;;;4.43;2.90;;;11.20;99.90;;;;;;5018616;28;20205;-94
2021/10/05 05:10:36;;;;;;;3.20;2.50;;;11.20;99.90;;;;;;5018292;28;20179;-93
2021/10/05 05:13:02;;;;;;;4.05;2.40;;;11.30;99.90;;;;;;5018186;28;20179;-94
2021/10/05 05:15:28;;;;;;;5.53;2.95;;;11.20;99.90;;;;;;5017382;28;20233;-94
2021/10/05 05:17:54;;;;;;;3.58;2.40;;;11.30;99.90;;;;;;5018377;28;20273;-93
2021/10/05 05:20:21;;;;;;;3.70;2.33;;;11.30;99.90;;;;;;5018157;28;20178;-90
2021/10/05 05:22:46;;;;;;;6.93;3.17;;;11.30;99.90;;;;;;5018181;28;20167;-95
2021/10/05 05:25:12;;;;;;;2.75;2.50;;;11.30;99.90;;;;;;5026129;28;20174;-93
2021/10/05 05:27:39;;;;;;;4.20;2.80;;;11.30;99.90;;;;;;5026851;28;20166;-94
2021/10/05 05:30:06;;;;;;;4.15;3.28;;;11.40;99.90;;;;;;5026513;28;20198;-92
2021/10/05 05:32:32;;;;;;;5.05;3.30;;;11.40;99.90;;;;;;5025786;28;20170;-95
2021/10/05 05:34:58;;;;;;;3.85;3.15;;;11.40;99.90;;;;;;5018219;28;20213;-93
2021/10/05 05:37:24;;;;;;;5.55;3.03;;;11.40;99.90;;;;;;5017679;28;20202;-95
2021/10/05 05:39:50;;;;;;;6.82;3.38;;;11.40;99.90;;;;;;5017387;28;20206;-93
2021/10/05 05:42:16;;;;;;;3.75;3.28;;;11.40;99.90;;;;;;5017153;28;20178;-93
2021/10/05 05:44:42;;;;;;;3.97;3.33;;;11.40;99.90;;;;;;5025855;28;20222;-94
2021/10/05 05:47:08;;;;;;;4.97;3.47;;;11.50;99.90;;;;;;5022662;28;20627;-93
2021/10/05 05:49:34;;;;;;;8.45;4.93;;;11.50;99.90;;;;;;5019095;28;20198;-94
2021/10/05 05:52:00;;;;;;;6.72;4.50;;;11.50;99.90;;;;;;5019265;28;20189;-95
2021/10/05 05:54:26;;;;;;;6.55;4.82;;;11.50;99.90;;;;;;5019565;28;20257;-95
2021/10/05 05:56:52;;;;;;;10.93;4.88;;;11.50;99.90;;;;;;5020074;28;20225;-94
2021/10/05 05:59:18;;;;;;;8.38;5.28;;;11.50;99.90;;;;;;5017991;28;20225;-92
2021/10/05 06:01:44;;;;;;;9.07;5.40;;;11.50;99.90;;;;;;5018208;28;20178;-93
2021/10/05 06:04:11;;;;;;;6.72;5.03;;;11.50;99.90;;;;;;5018111;28;20221;-94
2021/10/05 06:06:37;;;;;;;10.35;5.40;;;11.50;99.90;;;;;;5018504;28;20274;-93
2021/10/05 06:09:04;;;;;;;7.35;5.63;;;11.60;99.90;;;;;;5018060;28;20301;-94
2021/10/05 06:11:36;;;;;;;8.23;6.15;;;11.60;99.90;;;;;;5018656;28;20175;-94
2021/10/05 06:14:03;;;;;;;8.40;6.00;;;11.50;99.90;;;;;;5018171;28;20232;-95
2021/10/05 06:16:29;;;;;;;13.63;6.07;;;11.60;99.90;;;;;;5016937;28;20559;-94
2021/10/05 06:18:55;;;;;;;9.82;6.25;;;11.50;99.90;;;;;;5016731;28;20199;-94
2021/10/05 06:21:20;;;;;;;10.75;6.53;;;11.50;99.90;;;;;;5017282;28;20170;-94
2021/10/05 06:23:47;;;;;;;10.43;5.80;;;11.50;99.90;;;;;;5017595;28;20630;-94
2021/10/05 06:26:12;;;;;;;11.48;7.30;;;11.50;99.90;;;;;;5018639;28;20178;-95
2021/10/05 06:28:38;;;;;;;11.38;6.90;;;11.50;99.90;;;;;;5019250;28;20205;-96
2021/10/05 06:31:05;;;;;;;12.48;7.15;;;11.50;99.90;;;;;;5019977;28;20174;-95
2021/10/05 06:33:32;;;;;;;12.32;6.88;;;11.60;99.90;;;;;;5021637;28;20175;-95
2021/10/05 06:35:58;;;;;;;12.73;6.97;;;11.50;99.90;;;;;;5026563;28;20265;-96
2021/10/05 06:38:27;;;;;;;11.07;7.32;;;11.50;99.90;;;;;;5026343;28;20234;-96
2021/10/05 06:40:53;;;;;;;11.20;7.22;;;11.50;99.90;;;;;;5029708;28;20175;-94
2021/10/05 06:43:21;;;;;;;10.93;7.40;;;11.50;99.90;;;;;;5031602;28;20774;-94
2021/10/05 06:45:58;;;;;;;10.07;7.20;;;11.50;99.90;;;;;;5033611;28;20188;-95
2021/10/05 06:48:25;;;;;;;13.57;7.75;;;11.50;99.90;;;;;;5033538;28;20252;-94
2021/10/05 06:51:02;;;;;;;10.00;7.10;;;11.60;99.90;;;;;;5032474;28;20178;-94
2021/10/05 06:53:28;;;;;;;10.10;6.95;;;11.60;99.90;;;;;;5032405;28;20320;-95
2021/10/05 06:55:57;;;;;;;10.10;8.13;;;11.60;99.90;;;;;;5030614;28;20290;-95
2021/10/05 06:58:27;;;;;;;9.80;8.23;;;11.60;99.90;;;;;;5029226;28;20194;-96
2021/10/05 07:00:53;;;;;;;11.23;7.88;;;11.60;99.90;;;;;;5028976;28;20185;-96
2021/10/05 07:03:21;;;;;;;14.52;8.00;;;11.70;99.90;;;;;;5029954;28;20171;-95
2021/10/05 07:05:48;;;;;;;16.02;9.98;;;11.70;99.90;;;;;;5027576;28;20265;-96
2021/10/05 07:08:17;;;;;;;11.40;8.00;;;11.60;99.90;;;;;;5032346;28;20266;-95
2021/10/05 07:10:45;;;;;;;14.02;7.90;;;11.70;99.90;;;;;;5026307;28;20179;-96
2021/10/05 07:13:11;;;;;;;10.98;7.60;;;11.70;99.90;;;;;;5025661;28;20171;-96
2021/10/05 07:15:37;;;;;;;11.95;8.07;;;11.70;99.90;;;;;;5026230;28;20195;-96
2021/10/05 07:18:03;;;;;;;11.50;7.30;;;11.80;99.90;;;;;;5021931;28;20203;-95
2021/10/05 07:20:30;;;;;;;10.90;7.60;;;11.80;99.90;;;;;;5021915;28;20225;-95
2021/10/05 07:22:57;;;;;;;9.57;6.60;;;11.80;99.90;;;;;;5022311;28;20202;-96
2021/10/05 07:25:24;;;;;;;11.63;7.28;;;11.80;99.90;;;;;;5025122;28;20173;-95
2021/10/05 07:27:50;;;;;;;10.98;7.18;;;11.80;99.90;;;;;;5025398;28;20255;-95
2021/10/05 07:30:18;;;;;;;10.73;7.47;;;11.80;99.90;;;;;;5027774;28;20180;-96
2021/10/05 07:32:47;;;;;;;14.73;9.07;;;11.80;99.90;;;;;;5028231;28;20174;-95
2021/10/05 07:35:15;;;;;;;12.52;8.55;;;11.80;99.90;;;;;;5028009;28;20526;-96
2021/10/05 07:37:41;;;;;;;13.13;9.68;;;11.80;99.90;;;;;;5028883;28;20170;-96
2021/10/05 07:40:07;;;;;;;13.88;8.88;;;11.80;99.90;;;;;;5028997;28;20166;-96
2021/10/05 07:42:37;;;;;;;13.27;8.73;;;11.90;99.90;;;;;;5026515;28;20221;-96
2021/10/05 07:45:07;;;;;;;15.48;10.10;;;11.90;99.90;;;;;;5026768;28;20226;-95
2021/10/05 07:47:33;;;;;;;14.40;9.50;;;12.00;99.90;;;;;;5028574;28;20646;-96
2021/10/05 07:49:59;;;;;;;11.57;8.70;;;11.90;99.90;;;;;;5027285;28;20638;-96
2021/10/05 07:52:26;;;;;;;13.98;10.40;;;11.90;99.90;;;;;;5026111;28;20199;-96
2021/10/05 07:55:16;;;;;;;14.35;9.85;;;11.90;99.90;;;;;;5027552;28;20642;-96
2021/10/05 07:57:47;;;;;;;14.05;9.82;;;11.90;99.90;;;;;;5027691;28;20171;-96
2021/10/05 08:00:14;;;;;;;13.98;11.10;;;11.90;99.90;;;;;;5026933;28;20285;-95
2021/10/05 08:02:52;;;;;;;18.40;11.57;;;11.90;99.90;;;;;;5029253;28;20222;-96
2021/10/05 08:05:41;;;;;;;17.58;10.82;;;11.90;99.90;;;;;;5028188;28;20194;-96
2021/10/05 08:08:08;;;;;;;13.15;9.77;;;12.00;99.90;;;;;;5028008;28;20190;-95
2021/10/05 08:10:41;;;;;;;14.40;10.70;;;11.90;99.90;;;;;;5026816;28;20162;-96
2021/10/05 08:13:09;;;;;;;13.65;10.15;;;12.00;99.90;;;;;;5027448;28;20245;-96
2021/10/05 08:15:39;;;;;;;14.32;10.55;;;12.00;99.90;;;;;;5028363;28;20261;-96
2021/10/05 08:18:05;;;;;;;14.10;10.30;;;12.00;99.90;;;;;;5028082;28;20251;-96
2021/10/05 08:20:32;;;;;;;15.10;9.80;;;12.00;99.90;;;;;;5028765;28;20190;-96
2021/10/05 08:22:58;;;;;;;13.15;10.50;;;12.00;99.90;;;;;;5030024;28;20170;-96
2021/10/05 08:25:26;;;;;;;18.58;10.40;;;12.10;99.90;;;;;;5030400;28;20623;-96
2021/10/05 08:27:54;;;;;;;14.38;10.02;;;12.10;99.90;;;;;;5030849;28;20182;-95
2021/10/05 08:30:20;;;;;;;12.38;9.40;;;12.10;99.90;;;;;;5030215;28;20254;-96
2021/10/05 08:32:47;;;;;;;16.45;10.85;;;12.10;99.90;;;;;;5030365;28;20167;-95
2021/10/05 08:35:14;;;;;;;15.18;11.38;;;12.10;99.90;;;;;;5029610;28;20186;-95
2021/10/05 08:37:50;;;;;;;15.82;11.75;;;12.00;99.90;;;;;;5028006;28;20220;-96
2021/10/05 08:40:19;;;;;;;17.42;11.77;;;12.10;99.90;;;;;;5024727;28;20178;-95
2021/10/05 08:43:05;;;;;;;14.48;10.63;;;12.10;99.90;;;;;;5026441;28;20178;-96
2021/10/05 08:45:33;;;;;;;14.90;11.43;;;12.00;99.90;;;;;;5025172;28;20578;-94
2021/10/05 08:48:07;;;;;;;17.38;11.07;;;12.10;99.90;;;;;;5026259;28;20198;-96
2021/10/05 08:50:42;;;;;;;15.15;11.30;;;12.10;99.90;;;;;;5024768;28;20166;-94
2021/10/05 08:53:23;;;;;;;14.25;11.30;;;12.10;99.90;;;;;;5024820;28;20220;-95
2021/10/05 08:55:48;;;;;;;17.60;13.27;;;12.10;99.90;;;;;;5024537;28;20206;-95
2021/10/05 08:58:14;;;;;;;18.25;12.60;;;12.10;99.90;;;;;;5024728;28;20200;-95
2021/10/05 09:00:41;;;;;;;19.48;11.48;;;12.10;99.90;;;;;;5025421;28;20186;-95
2021/10/05 09:03:09;;;;;;;17.67;12.45;;;12.10;99.90;;;;;;5024931;28;20171;-96
2021/10/05 09:05:40;;;;;;;17.52;11.43;;;12.10;99.90;;;;;;5024664;28;20182;-96
2021/10/05 09:08:06;;;;;;;12.60;10.18;;;12.20;99.90;;;;;;5023670;28;20226;-96
2021/10/05 09:10:33;;;;;;;13.20;10.50;;;12.20;99.90;;;;;;5024550;28;20183;-95
2021/10/05 09:13:00;;;;;;;11.73;9.60;;;12.20;99.90;;;;;;5024742;28;20171;-94
2021/10/05 09:15:30;;;;;;;9.18;7.72;;;12.30;99.90;;;;;;5027130;28;20179;-95
2021/10/05 09:17:59;;;;;;;11.85;8.65;;;12.30;99.90;;;;;;5029969;28;20167;-95
2021/10/05 09:20:30;;;;;;;12.52;9.63;;;12.30;99.90;;;;;;5026675;28;20171;-95
2021/10/05 09:23:09;;;;;;;12.95;10.63;;;12.30;99.90;;;;;;5027565;28;20530;-95
2021/10/05 09:25:42;;;;;;;13.90;10.60;;;12.40;99.90;;;;;;5028213;28;20179;-96
2021/10/05 09:28:23;;;;;;;9.73;8.35;;;12.40;99.90;;;;;;5028895;28;20285;-96
2021/10/05 09:31:04;;;;;;;11.32;8.90;;;12.50;99.90;;;;;;5029182;28;20210;-95
2021/10/05 09:33:36;;;;;;;9.60;7.70;;;12.50;99.90;;;;;;5030984;28;20171;-94
2021/10/05 09:36:03;;;;;;;10.10;8.00;;;12.50;99.90;;;;;;5028225;28;20198;-96
2021/10/05 09:38:30;;;;;;;10.70;8.27;;;12.60;99.90;;;;;;5028104;28;20658;-96
2021/10/05 09:41:01;;;;;;;11.13;9.20;;;12.60;99.90;;;;;;5027510;28;20181;-95
2021/10/05 09:43:28;;;;;;;11.77;8.55;;;12.60;99.90;;;;;;5027093;28;20359;-95
2021/10/05 09:46:11;;;;;;;8.38;6.75;;;12.60;99.90;;;;;;5028688;28;20193;-96
2021/10/05 09:48:38;;;;;;;9.15;7.15;;;12.60;99.90;;;;;;5029132;28;20198;-96
2021/10/05 09:51:24;;;;;;;9.45;7.05;;;12.70;99.90;;;;;;5030218;28;20190;-96
2021/10/05 09:53:54;;;;;;;8.05;7.00;;;12.70;99.90;;;;;;5031642;28;20185;-96
2021/10/05 09:56:22;;;;;;;10.02;6.82;;;12.80;99.90;;;;;;5030387;28;20290;-96
2021/10/05 09:58:53;;;;;;;7.43;6.18;;;12.70;99.90;;;;;;5030549;28;20202;-95
2021/10/05 10:01:32;;;;;;;7.20;6.00;;;12.70;99.90;;;;;;5029485;28;20171;-96
2021/10/05 10:04:02;;;;;;;6.70;5.97;;;12.80;99.90;;;;;;5029553;28;20531;-96
2021/10/05 10:06:32;;;;;;;10.82;7.53;;;12.80;99.90;;;;;;5046500;28;20239;-95
2021/10/05 10:08:58;;;;;;;10.02;7.13;;;12.70;99.90;;;;;;5030572;28;20230;-96
2021/10/05 10:11:34;;;;;;;9.30;7.18;;;12.70;99.90;;;;;;5030722;28;20174;-96
2021/10/05 10:14:04;;;;;;;10.23;6.93;;;12.70;99.90;;;;;;5031173;28;20174;-96
2021/10/05 10:16:48;;;;;;;7.85;6.30;;;12.60;99.90;;;;;;5030979;28;20225;-96
2021/10/05 10:19:29;;;;;;;9.32;6.43;;;12.70;99.90;;;;;;5029898;28;20195;-96
2021/10/05 10:22:08;;;;;;;6.95;4.95;;;12.70;99.90;;;;;;5031241;28;20178;-95
2021/10/05 10:24:45;;;;;;;8.68;5.65;;;12.70;99.90;;;;;;5029310;28;20171;-96
2021/10/05 10:27:11;;;;;;;6.65;4.57;;;12.70;99.90;;;;;;5030855;28;20174;-95
2021/10/05 10:29:43;;;;;;;8.30;5.50;;;12.70;99.90;;;;;;5030898;28;20198;-96
2021/10/05 10:32:24;;;;;;;7.75;5.20;;;12.70;99.90;;;;;;5031130;28;20175;-96
2021/10/05 10:35:06;;;;;;;9.90;5.80;;;12.70;99.90;;;;;;5031768;28;20190;-96
2021/10/05 10:38:06;;;;;;;8.93;5.65;;;12.60;99.90;;;;;;5029934;28;20278;-96
2021/10/05 10:40:41;;;;;;;8.40;5.45;;;12.60;99.90;;;;;;4988179;28;20245;-96
2021/10/05 10:43:17;;;;;;;8.13;5.32;;;12.60;99.90;;;;;;5038281;28;20182;-96
2021/10/05 10:49:22;;;;;;;9.93;6.00;;;12.60;99.90;;;;;;5048307;23;20240;-95
2021/10/05 10:51:51;;;;;;;10.52;5.30;;;12.70;99.90;;;;;;5042061;28;20177;-95
2021/10/05 10:54:22;;;;;;;10.48;6.60;;;12.60;99.90;;;;;;5039510;28;20186;-95
2021/10/05 10:57:06;;;;;;;8.60;5.68;;;12.60;99.90;;;;;;5056220;28;20647;-95
2021/10/05 10:59:35;;;;;;;7.97;4.72;;;12.70;99.90;;;;;;5035361;28;20647;-95
2021/10/05 11:02:07;;;;;;;7.20;4.55;;;12.70;99.90;;;;;;5039197;28;20228;-96
2021/10/05 11:04:34;;;;;;;8.43;4.65;;;12.70;99.90;;;;;;5039696;28;20190;-94
2021/10/05 11:07:01;;;;;;;8.07;5.05;;;12.70;99.90;;;;;;5041770;28;20194;-94
2021/10/05 11:09:31;;;;;;;8.45;5.00;;;12.70;99.90;;;;;;5040651;28;20196;-95
2021/10/05 11:11:57;;;;;;;7.45;4.65;;;12.80;99.90;;;;;;5041145;28;20198;-94
2021/10/05 11:14:26;;;;;;;6.85;4.35;;;12.70;99.90;;;;;;5041786;28;20201;-94
2021/10/05 11:16:59;;;;;;;7.32;4.25;;;12.80;99.90;;;;;;5041760;28;20635;-94
2021/10/05 11:19:31;;;;;;;8.73;5.00;;;12.90;99.90;;;;;;5042066;28;20185;-93
2021/10/05 11:21:58;;;;;;;6.05;4.53;;;12.90;99.90;;;;;;5040455;28;20670;-95
2021/10/05 11:24:41;;;;;;;8.30;4.63;;;12.90;99.90;;;;;;5039993;28;20177;-94
2021/10/05 11:27:20;;;;;;;6.75;4.05;;;13.00;99.90;;;;;;5039348;28;20196;-94
2021/10/05 11:29:48;;;;;;;6.38;3.90;;;13.00;99.90;;;;;;5039049;28;20205;-95
2021/10/05 11:32:18;;;;;;;6.63;4.72;;;13.00;99.90;;;;;;5042645;28;20213;-95
2021/10/05 11:34:46;;;;;;;5.68;4.18;;;12.90;99.90;;;;;;5025582;28;20633;-94
2021/10/05 11:37:15;;;;;;;5.30;4.10;;;13.00;99.90;;;;;;5041462;28;20245;-94
2021/10/05 11:39:42;;;;;;;8.15;4.65;;;13.00;99.90;;;;;;5041190;28;20268;-94
2021/10/05 11:42:12;;;;;;;4.35;3.50;;;13.10;99.90;;;;;;5037079;28;20190;-95
2021/10/05 11:44:48;;;;;;;4.47;3.10;;;13.10;99.90;;;;;;5038186;28;20251;-95
2021/10/05 11:47:16;;;;;;;4.75;3.90;;;13.20;99.90;;;;;;5038205;28;20627;-95
2021/10/05 11:49:45;;;;;;;4.32;3.83;;;13.20;99.90;;;;;;5054567;28;20225;-94
2021/10/05 11:52:29;;;;;;;4.57;3.92;;;13.30;99.90;;;;;;5055427;28;20571;-94
2021/10/05 11:55:01;;;;;;;4.95;3.40;;;13.30;99.90;;;;;;5056078;28;20193;-94
2021/10/05 11:57:32;;;;;;;5.05;3.65;;;13.20;99.90;;;;;;5055871;28;20308;-95
2021/10/05 12:00:02;;;;;;;4.63;3.08;;;13.20;99.90;;;;;;5051162;28;20675;-94
2021/10/05 12:04:58;;;;;;;7.10;5.20;;;13.30;99.90;;;;;;5031270;28;20700;-95
2021/10/05 12:07:26;;;;;;;6.10;4.93;;;13.30;99.90;;;;;;5029983;28;20185;-95
2021/10/05 12:10:02;;;;;;;5.75;4.45;;;13.20;99.90;;;;;;5029185;28;20191;-95
2021/10/05 12:12:32;;;;;;;6.32;4.53;;;13.30;99.90;;;;;;5037787;28;20300;-95
2021/10/05 12:15:03;;;;;;;7.68;4.60;;;13.30;99.90;;;;;;5034577;28;20195;-96
2021/10/05 12:17:32;;;;;;;5.03;4.32;;;13.30;99.90;;;;;;5033360;28;20280;-95
2021/10/05 12:20:08;;;;;;;3.95;3.40;;;13.20;99.90;;;;;;5037751;28;20621;-95
2021/10/05 12:22:38;;;;;;;4.43;3.97;;;13.30;99.90;;;;;;5044393;28;20216;-96
2021/10/05 12:25:21;;;;;;;4.00;3.35;;;13.30;99.90;;;;;;5040406;28;20183;-96
2021/10/05 12:27:50;;;;;;;4.38;3.95;;;13.30;99.90;;;;;;5035715;28;20186;-96
2021/10/05 12:30:27;;;;;;;4.28;3.30;;;13.40;99.90;;;;;;5045322;28;20186;-96
2021/10/05 12:33:00;;;;;;;4.90;3.08;;;13.40;99.90;;;;;;5043596;28;20190;-96
2021/10/05 12:35:35;;;;;;;4.28;3.40;;;13.50;99.90;;;;;;5041709;28;20189;-95
2021/10/05 12:38:17;;;;;;;4.55;3.78;;;13.50;99.90;;;;;;5038658;28;20244;-94
2021/10/05 12:40:50;;;;;;;3.05;2.75;;;13.50;99.90;;;;;;5035379;28;20693;-95
2021/10/05 12:43:22;;;;;;;3.45;3.15;;;13.50;99.90;;;;;;5032363;28;20309;-96
2021/10/05 12:45:56;;;;;;;3.28;2.60;;;13.50;99.90;;;;;;5035178;28;20286;-96
2021/10/05 12:48:36;;;;;;;2.50;2.10;;;13.60;99.90;;;;;;5033426;28;20186;-95
2021/10/05 12:51:11;;;;;;;2.17;1.95;;;13.60;99.90;;;;;;5035039;28;20564;-95
2021/10/05 12:53:42;;;;;;;1.77;1.67;;;13.70;99.90;;;;;;5034826;28;20185;-96
2021/10/05 12:56:08;;;;;;;1.70;1.60;;;13.70;99.90;;;;;;5037538;28;20214;-96
2021/10/05 12:58:39;;;;;;;4.20;1.65;;;13.80;99.90;;;;;;5036762;28;20601;-96
2021/10/05 13:01:07;;;;;;;2.03;1.45;;;13.80;99.90;;;;;;5036520;28;20269;-94
2021/10/05 13:03:33;;;;;;;1.90;1.80;;;13.70;99.90;;;;;;5031181;28;20271;-96
2021/10/05 13:06:00;;;;;;;2.83;1.63;;;13.70;99.90;;;;;;5038341;28;20312;-96
2021/10/05 13:08:26;;;;;;;1.75;1.65;;;13.70;99.90;;;;;;5038797;28;20182;-95
2021/10/05 13:10:52;;;;;;;3.08;1.88;;;13.60;99.90;;;;;;5042492;28;20186;-96